Time;durP1;ratioP1;P1;durP2;ratioP2;P2;SDS_P1;SDS_P2;PMS_P1;PMS_P2;Temp;Humidity;BMP_temperature;BMP_pressure;BME280_temperature;BME280_humidity;BME280_pressure;Samples;Min_cycle;Max_cycle;Signal;HPM_P1;HPM_P2
2022/03/04 00:00:41;;;;;;;9.77;6.30;;;5.40;91.90;;;;;;4816522;29;20067;-67
2022/03/04 00:03:10;;;;;;;13.07;7.03;;;5.40;91.90;;;;;;4785159;29;20065;-69
2022/03/04 00:05:41;;;;;;;10.02;5.30;;;5.40;91.90;;;;;;4803399;29;20050;-68
2022/03/04 00:08:09;;;;;;;9.95;5.47;;;5.40;91.90;;;;;;4800915;29;20166;-68
2022/03/04 00:10:38;;;;;;;10.82;5.10;;;5.40;91.80;;;;;;4803134;29;20066;-68
2022/03/04 00:13:07;;;;;;;7.32;4.43;;;5.40;91.70;;;;;;4803582;29;20363;-69
2022/03/04 00:15:41;;;;;;;12.68;5.28;;;5.50;91.70;;;;;;4803584;29;20068;-69
2022/03/04 00:18:09;;;;;;;8.73;4.40;;;5.50;91.60;;;;;;4802707;29;20390;-69
2022/03/04 00:20:36;;;;;;;8.60;3.88;;;5.50;91.50;;;;;;4816089;29;20043;-69
2022/03/04 00:23:05;;;;;;;4.65;1.85;;;5.40;91.30;;;;;;4802786;29;20058;-69
2022/03/04 00:25:33;;;;;;;3.28;1.20;;;5.30;91.00;;;;;;4796685;29;20051;-69
2022/03/04 00:28:02;;;;;;;1.80;0.88;;;5.30;90.60;;;;;;4789183;29;20061;-69
2022/03/04 00:30:30;;;;;;;4.85;0.88;;;5.20;90.40;;;;;;4804687;29;20054;-69
2022/03/04 00:32:58;;;;;;;3.78;1.00;;;5.10;90.50;;;;;;4806427;29;20059;-69
2022/03/04 00:35:25;;;;;;;2.80;0.70;;;5.00;90.40;;;;;;4806646;29;20054;-69
2022/03/04 00:37:53;;;;;;;2.30;0.75;;;5.00;90.40;;;;;;4805614;29;20053;-69
2022/03/04 00:40:22;;;;;;;2.42;0.50;;;4.90;90.40;;;;;;4791966;29;20048;-69
2022/03/04 00:42:50;;;;;;;3.13;0.63;;;4.90;90.30;;;;;;4791405;29;20050;-69
2022/03/04 00:45:19;;;;;;;1.33;0.60;;;4.80;90.20;;;;;;4805173;29;20139;-68
2022/03/04 00:47:46;;;;;;;1.85;0.50;;;4.80;90.20;;;;;;4820308;29;20397;-69
2022/03/04 00:50:14;;;;;;;1.25;0.43;;;4.80;90.10;;;;;;4805157;29;20054;-69
2022/03/04 00:52:42;;;;;;;1.88;0.68;;;4.80;90.20;;;;;;4763392;29;1284983;-68
2022/03/04 00:55:10;;;;;;;2.95;0.60;;;4.80;90.10;;;;;;4807203;29;20394;-68
2022/03/04 00:57:37;;;;;;;1.73;0.50;;;4.80;90.10;;;;;;4806809;29;20532;-69
2022/03/04 01:00:06;;;;;;;4.75;0.60;;;4.70;90.10;;;;;;4806892;29;20053;-68
2022/03/04 01:02:33;;;;;;;3.13;0.85;;;4.80;90.10;;;;;;4821870;29;20047;-68
2022/03/04 01:05:01;;;;;;;1.33;0.60;;;4.80;90.10;;;;;;4806290;29;20053;-68
2022/03/04 01:07:29;;;;;;;1.35;0.60;;;4.70;90.10;;;;;;4805648;29;20058;-68
2022/03/04 01:09:56;;;;;;;4.45;0.68;;;4.70;90.10;;;;;;4805190;29;20062;-68
2022/03/04 01:12:24;;;;;;;3.45;0.70;;;4.80;90.10;;;;;;4806726;29;20055;-68
2022/03/04 01:14:54;;;;;;;3.00;0.68;;;4.70;90.10;;;;;;4804563;29;20050;-68
2022/03/04 01:17:22;;;;;;;7.00;1.00;;;4.70;90.10;;;;;;4806896;29;20055;-68
2022/03/04 01:19:49;;;;;;;1.92;0.80;;;4.70;90.20;;;;;;4806519;29;20418;-68
2022/03/04 01:22:17;;;;;;;3.22;1.17;;;4.70;90.20;;;;;;4807065;29;20054;-68
2022/03/04 01:24:45;;;;;;;3.72;1.00;;;4.70;90.30;;;;;;4806464;29;20069;-68
2022/03/04 01:27:12;;;;;;;2.45;1.00;;;4.70;90.30;;;;;;4806443;29;20054;-68
2022/03/04 01:29:40;;;;;;;1.10;1.00;;;4.70;90.30;;;;;;4807045;29;20042;-68
2022/03/04 01:32:08;;;;;;;1.90;0.90;;;4.70;90.30;;;;;;4806013;29;20070;-69
2022/03/04 01:34:35;;;;;;;3.75;1.17;;;4.70;90.30;;;;;;4806470;29;20069;-68
2022/03/04 01:37:03;;;;;;;3.97;1.55;;;4.70;90.40;;;;;;4801520;29;20050;-67
2022/03/04 01:39:31;;;;;;;3.40;1.48;;;4.70;90.40;;;;;;4806816;29;20055;-68
2022/03/04 01:41:59;;;;;;;5.20;1.90;;;4.70;90.40;;;;;;4806858;29;20058;-68
2022/03/04 01:44:26;;;;;;;2.40;1.52;;;4.70;90.50;;;;;;4806648;29;20414;-68
2022/03/04 01:46:54;;;;;;;4.18;2.00;;;4.70;90.50;;;;;;4804511;29;20047;-67
2022/03/04 01:49:22;;;;;;;3.47;2.28;;;4.70;90.50;;;;;;4794421;29;20062;-68
2022/03/04 01:51:50;;;;;;;7.13;2.08;;;4.70;90.50;;;;;;4820438;29;20054;-67
2022/03/04 01:54:17;;;;;;;4.13;1.95;;;4.70;90.60;;;;;;4828603;29;20055;-67
2022/03/04 01:56:45;;;;;;;3.83;2.05;;;4.70;90.50;;;;;;4820552;29;20562;-69
2022/03/04 01:59:13;;;;;;;4.72;2.20;;;4.70;90.60;;;;;;4805876;29;20062;-69
2022/03/04 02:01:41;;;;;;;3.40;2.00;;;4.70;90.50;;;;;;4819271;29;20050;-68
2022/03/04 02:04:09;;;;;;;2.45;1.80;;;4.70;90.50;;;;;;4806439;29;20506;-69
2022/03/04 02:06:37;;;;;;;3.40;1.55;;;4.60;90.60;;;;;;4806580;29;20058;-68
2022/03/04 02:09:05;;;;;;;4.50;2.13;;;4.60;90.60;;;;;;4804420;29;20069;-69
2022/03/04 02:11:32;;;;;;;1.67;1.40;;;4.60;90.50;;;;;;4805168;29;20051;-69
2022/03/04 02:14:00;;;;;;;4.47;1.77;;;4.60;90.50;;;;;;4805697;29;20062;-68
2022/03/04 02:16:52;;;;;;;2.33;1.95;;;4.60;90.50;;;;;;4805343;29;20051;-68
2022/03/04 02:19:21;;;;;;;4.03;1.75;;;4.60;90.60;;;;;;4798186;29;20066;-68
2022/03/04 02:21:54;;;;;;;2.58;1.73;;;4.60;90.50;;;;;;4805901;29;20105;-68
2022/03/04 02:24:22;;;;;;;;;;;4.60;90.60;;;;;;4805695;29;20051;-68
2022/03/04 02:26:51;;;;;;;2.80;1.45;;;4.50;90.60;;;;;;4805423;29;19931;-68
2022/03/04 02:29:19;;;;;;;2.42;1.63;;;4.50;90.60;;;;;;4803940;29;20054;-68
2022/03/04 02:31:48;;;;;;;3.10;1.70;;;4.50;90.60;;;;;;4820131;29;20417;-68
2022/03/04 02:34:17;;;;;;;2.85;1.60;;;4.50;90.60;;;;;;4805530;29;20054;-68
2022/03/04 02:36:45;;;;;;;2.28;1.50;;;4.50;90.70;;;;;;4806018;29;20563;-69
2022/03/04 02:39:13;;;;;;;1.85;1.38;;;4.50;90.70;;;;;;4805822;29;20062;-69
2022/03/04 02:41:41;;;;;;;2.33;1.50;;;4.50;90.70;;;;;;4805587;29;20039;-68
2022/03/04 02:44:11;;;;;;;1.67;1.42;;;4.50;90.70;;;;;;4821400;29;20061;-68
2022/03/04 02:46:39;;;;;;;2.55;1.88;;;4.60;90.70;;;;;;4805506;29;20050;-69
2022/03/04 02:49:08;;;;;;;2.58;2.08;;;4.50;90.70;;;;;;4796952;29;20474;-68
2022/03/04 02:51:37;;;;;;;2.05;1.80;;;4.50;90.80;;;;;;4796709;29;20046;-68
2022/03/04 02:54:05;;;;;;;2.08;1.88;;;4.60;90.80;;;;;;4805809;29;20066;-69
2022/03/04 02:56:33;;;;;;;3.67;1.70;;;4.50;90.80;;;;;;4805809;29;20058;-69
2022/03/04 02:59:01;;;;;;;4.70;2.10;;;4.50;90.90;;;;;;4803904;29;20501;-69
2022/03/04 03:01:28;;;;;;;2.78;1.80;;;4.50;90.90;;;;;;4805559;29;20050;-69
2022/03/04 03:03:57;;;;;;;5.30;2.08;;;4.50;90.90;;;;;;4804527;29;20486;-69
2022/03/04 03:06:24;;;;;;;3.28;2.03;;;4.60;90.90;;;;;;4805650;29;20059;-69
2022/03/04 03:08:52;;;;;;;2.75;2.15;;;4.60;90.90;;;;;;4805351;29;20043;-69
2022/03/04 03:11:19;;;;;;;3.10;2.20;;;4.50;91.00;;;;;;4801185;29;20043;-69
2022/03/04 03:13:47;;;;;;;3.72;2.03;;;4.50;91.00;;;;;;4787496;30;20058;-69
2022/03/04 03:16:15;;;;;;;2.10;1.67;;;4.50;91.00;;;;;;4796790;29;20054;-69
2022/03/04 03:18:43;;;;;;;4.72;2.38;;;4.50;91.00;;;;;;4804941;29;20055;-69
2022/03/04 03:21:10;;;;;;;2.72;2.10;;;4.50;91.00;;;;;;4804990;29;20055;-69
2022/03/04 03:23:38;;;;;;;4.25;2.53;;;4.50;91.00;;;;;;4805271;29;20051;-69
2022/03/04 03:26:05;;;;;;;3.20;1.92;;;4.50;91.00;;;;;;4804761;29;20406;-69
2022/03/04 03:28:33;;;;;;;4.65;2.30;;;4.50;91.00;;;;;;4813552;29;20055;-69
2022/03/04 03:31:02;;;;;;;4.60;2.35;;;4.50;91.00;;;;;;4802143;29;20061;-69
2022/03/04 03:33:30;;;;;;;2.80;2.50;;;4.50;91.10;;;;;;4805530;29;20067;-69
2022/03/04 03:35:58;;;;;;;6.28;2.00;;;4.50;91.10;;;;;;4806204;29;20064;-69
2022/03/04 03:38:26;;;;;;;1.95;1.60;;;4.50;91.10;;;;;;4804316;29;20043;-69
2022/03/04 03:40:53;;;;;;;3.92;2.40;;;4.50;91.10;;;;;;4804520;29;20137;-69
2022/03/04 03:43:40;;;;;;;5.47;2.20;;;4.50;91.10;;;;;;4804639;29;20051;-70
2022/03/04 03:46:09;;;;;;;2.40;2.20;;;4.50;91.10;;;;;;4805183;29;20054;-69
2022/03/04 03:48:40;;;;;;;3.85;2.38;;;4.50;91.10;;;;;;4804351;29;20414;-70
2022/03/04 03:51:08;;;;;;;4.40;2.67;;;4.50;91.10;;;;;;4804614;29;20066;-69
2022/03/04 03:53:36;;;;;;;4.80;2.80;;;4.50;91.10;;;;;;4800497;29;20395;-70
2022/03/04 03:56:04;;;;;;;4.10;2.50;;;4.50;91.10;;;;;;4805054;29;20414;-69
2022/03/04 03:58:32;;;;;;;7.03;2.90;;;4.50;91.10;;;;;;4798972;29;20486;-70
2022/03/04 04:01:00;;;;;;;2.88;2.50;;;4.50;91.10;;;;;;4805842;29;20055;-69
2022/03/04 04:03:28;;;;;;;3.75;2.70;;;4.50;91.10;;;;;;4804844;29;20054;-70
2022/03/04 04:05:56;;;;;;;3.28;2.25;;;4.50;91.20;;;;;;4804181;29;20055;-69
2022/03/04 04:08:24;;;;;;;3.95;2.80;;;4.50;91.10;;;;;;4803744;29;20062;-69
2022/03/04 04:10:51;;;;;;;5.95;2.83;;;4.50;91.10;;;;;;4803948;29;20059;-70
2022/03/04 04:13:19;;;;;;;6.50;2.75;;;4.50;91.10;;;;;;4818642;29;20147;-70
2022/03/04 04:15:46;;;;;;;3.75;3.17;;;4.50;91.20;;;;;;4804348;29;20546;-70
2022/03/04 04:18:15;;;;;;;3.22;2.83;;;4.50;91.20;;;;;;4804625;29;20057;-70
2022/03/04 04:20:42;;;;;;;5.60;3.30;;;4.50;91.20;;;;;;4804342;29;20051;-70
2022/03/04 04:23:10;;;;;;;6.65;3.00;;;4.50;91.20;;;;;;4804684;29;20059;-70
2022/03/04 04:25:37;;;;;;;4.82;3.20;;;4.50;91.20;;;;;;4804445;29;20046;-70
2022/03/04 04:28:05;;;;;;;3.47;2.65;;;4.50;91.20;;;;;;4801208;29;20054;-70
2022/03/04 04:30:33;;;;;;;6.95;2.85;;;4.50;91.20;;;;;;4796250;29;20063;-70
2022/03/04 04:33:01;;;;;;;4.25;2.70;;;4.50;91.20;;;;;;4803960;29;20066;-70
2022/03/04 04:35:29;;;;;;;3.35;2.55;;;4.50;91.20;;;;;;4804269;29;20062;-70
2022/03/04 04:37:57;;;;;;;4.72;3.03;;;4.50;91.20;;;;;;4804352;29;20047;-70
2022/03/04 04:40:24;;;;;;;2.97;2.33;;;4.50;91.20;;;;;;4796460;29;20047;-70
2022/03/04 04:42:52;;;;;;;4.18;2.60;;;4.50;91.20;;;;;;4818119;29;20058;-70
2022/03/04 04:45:19;;;;;;;3.83;2.58;;;4.50;91.20;;;;;;4802905;29;20540;-70
2022/03/04 04:47:47;;;;;;;4.60;3.30;;;4.50;91.20;;;;;;4804403;29;20051;-70
2022/03/04 04:50:14;;;;;;;4.15;3.75;;;4.50;91.20;;;;;;4804188;29;20055;-70
2022/03/04 04:52:42;;;;;;;3.97;3.58;;;4.50;91.30;;;;;;4804000;29;20057;-70
2022/03/04 04:55:10;;;;;;;7.45;4.45;;;4.40;91.30;;;;;;4803941;29;20066;-70
2022/03/04 04:57:37;;;;;;;5.47;4.28;;;4.40;91.30;;;;;;4801535;29;20417;-70
2022/03/04 05:00:06;;;;;;;9.27;4.57;;;4.40;91.30;;;;;;4799832;29;20063;-70
2022/03/04 05:02:34;;;;;;;5.97;4.07;;;4.40;91.30;;;;;;4793898;29;20066;-70
2022/03/04 05:05:03;;;;;;;4.55;3.17;;;4.40;91.30;;;;;;4804171;29;20061;-70
2022/03/04 05:07:31;;;;;;;3.75;3.30;;;4.40;91.30;;;;;;4802978;29;20046;-70
2022/03/04 05:09:58;;;;;;;4.88;3.50;;;4.40;91.40;;;;;;4804285;29;20047;-70
2022/03/04 05:12:26;;;;;;;3.38;2.97;;;4.40;91.30;;;;;;4806425;29;20043;-70
2022/03/04 05:14:53;;;;;;;2.17;1.63;;;4.40;91.40;;;;;;4807521;29;20405;-70
2022/03/04 05:17:21;;;;;;;2.22;2.03;;;4.30;91.30;;;;;;4802730;29;20059;-70
2022/03/04 05:19:48;;;;;;;3.05;2.10;;;4.30;91.40;;;;;;4806755;29;20054;-70
2022/03/04 05:22:16;;;;;;;2.38;2.00;;;4.30;91.40;;;;;;4807289;29;20051;-71
2022/03/04 05:24:44;;;;;;;2.05;1.67;;;4.30;91.40;;;;;;4805943;29;20058;-70
2022/03/04 05:27:11;;;;;;;3.95;2.28;;;4.30;91.40;;;;;;4790254;29;20390;-71
2022/03/04 05:29:39;;;;;;;2.95;2.22;;;4.30;91.40;;;;;;4802843;29;20059;-71
2022/03/04 05:32:07;;;;;;;2.30;2.08;;;4.30;91.40;;;;;;4790470;29;20058;-71
2022/03/04 05:34:37;;;;;;;3.33;2.15;;;4.30;91.40;;;;;;4820583;29;20050;-71
2022/03/04 05:37:05;;;;;;;5.80;2.30;;;4.30;91.40;;;;;;4806541;29;20077;-70
2022/03/04 05:39:32;;;;;;;3.35;2.40;;;4.20;91.40;;;;;;4806395;29;20070;-70
2022/03/04 05:42:00;;;;;;;2.28;1.83;;;4.30;91.40;;;;;;4805265;29;20065;-71
2022/03/04 05:44:27;;;;;;;3.30;2.30;;;4.30;91.30;;;;;;4806987;29;20417;-71
2022/03/04 05:46:55;;;;;;;2.15;1.58;;;4.30;91.30;;;;;;4820302;29;20054;-71
2022/03/04 05:49:23;;;;;;;3.55;1.83;;;4.30;91.30;;;;;;4806040;29;20505;-70
2022/03/04 05:51:50;;;;;;;1.75;1.65;;;4.20;91.30;;;;;;4806679;29;20055;-70
2022/03/04 05:54:18;;;;;;;2.67;2.20;;;4.20;91.30;;;;;;4806115;29;20058;-71
2022/03/04 05:56:46;;;;;;;2.30;1.65;;;4.30;91.30;;;;;;4806592;29;20386;-71
2022/03/04 05:59:13;;;;;;;2.45;1.85;;;4.20;91.30;;;;;;4806278;29;20058;-71
2022/03/04 06:01:41;;;;;;;4.18;1.42;;;4.20;91.30;;;;;;4805774;29;20077;-71
2022/03/04 06:04:09;;;;;;;3.17;1.30;;;4.20;91.30;;;;;;4806112;29;20481;-71
2022/03/04 06:06:36;;;;;;;4.35;1.92;;;4.20;91.20;;;;;;4806221;29;20061;-72
2022/03/04 06:09:04;;;;;;;2.00;1.58;;;4.20;91.20;;;;;;4804443;29;20051;-71
2022/03/04 06:11:31;;;;;;;4.57;1.50;;;4.20;91.20;;;;;;4802606;29;20058;-71
2022/03/04 06:14:02;;;;;;;2.20;1.48;;;4.20;91.20;;;;;;4805610;29;20382;-71
2022/03/04 06:16:30;;;;;;;1.90;1.40;;;4.20;91.20;;;;;;4805043;29;20062;-71
2022/03/04 06:18:58;;;;;;;2.05;1.70;;;4.20;91.10;;;;;;4802109;29;20073;-71
2022/03/04 06:21:26;;;;;;;3.17;1.70;;;4.20;91.10;;;;;;4802551;29;20054;-71
2022/03/04 06:23:54;;;;;;;1.95;1.50;;;4.10;91.10;;;;;;4818849;29;20502;-71
2022/03/04 06:26:21;;;;;;;6.35;1.70;;;4.10;91.10;;;;;;4804445;29;20051;-71
2022/03/04 06:28:49;;;;;;;2.33;1.70;;;4.20;91.10;;;;;;4806012;29;20074;-71
2022/03/04 06:31:16;;;;;;;3.78;1.80;;;4.10;91.10;;;;;;4805483;29;20050;-72
2022/03/04 06:33:44;;;;;;;5.07;1.60;;;4.10;91.10;;;;;;4804508;29;20505;-72
2022/03/04 06:36:13;;;;;;;1.77;1.40;;;4.10;91.10;;;;;;4805770;29;20106;-72
2022/03/04 06:38:43;;;;;;;4.55;1.60;;;4.10;91.10;;;;;;4805375;29;20413;-72
2022/03/04 06:41:13;;;;;;;2.45;1.60;;;4.10;91.10;;;;;;4804625;29;20465;-72
2022/03/04 06:43:42;;;;;;;2.15;1.13;;;4.10;91.10;;;;;;4805217;29;20039;-72
2022/03/04 06:46:10;;;;;;;2.55;1.48;;;4.10;91.10;;;;;;4818800;29;20059;-72
2022/03/04 06:48:38;;;;;;;6.13;1.33;;;4.10;91.10;;;;;;4804550;29;20043;-72
2022/03/04 06:51:05;;;;;;;2.88;1.42;;;4.10;91.10;;;;;;4788859;29;20058;-72
2022/03/04 06:53:33;;;;;;;2.85;1.23;;;4.10;91.10;;;;;;4803351;29;20152;-72
2022/03/04 06:56:01;;;;;;;2.90;1.50;;;4.10;91.10;;;;;;4805149;29;20066;-72
2022/03/04 06:58:28;;;;;;;2.30;1.35;;;4.10;91.10;;;;;;4803445;29;20055;-72
2022/03/04 07:00:57;;;;;;;3.42;1.40;;;4.10;91.10;;;;;;4803812;29;20055;-72
2022/03/04 07:03:25;;;;;;;3.55;1.45;;;4.10;91.10;;;;;;4800222;29;20516;-72
2022/03/04 07:05:54;;;;;;;2.63;1.25;;;4.10;91.10;;;;;;4804499;29;20413;-73
2022/03/04 07:08:24;;;;;;;1.50;1.40;;;4.10;91.00;;;;;;4805808;29;20051;-73
2022/03/04 07:10:51;;;;;;;2.75;1.58;;;4.20;91.00;;;;;;4794169;29;20061;-73
2022/03/04 07:13:21;;;;;;;2.63;1.30;;;4.20;91.10;;;;;;4805598;29;20517;-73
2022/03/04 07:15:51;;;;;;;3.45;1.52;;;4.20;91.00;;;;;;4804160;29;20070;-72
2022/03/04 07:18:19;;;;;;;3.35;1.30;;;4.20;91.00;;;;;;4799867;29;20055;-73
2022/03/04 07:20:46;;;;;;;2.05;1.35;;;4.20;91.00;;;;;;4790954;29;20417;-73
2022/03/04 07:23:14;;;;;;;3.53;1.67;;;4.20;91.00;;;;;;4795285;29;20067;-74
2022/03/04 07:25:42;;;;;;;2.40;1.40;;;4.20;90.90;;;;;;4802043;29;20517;-74
2022/03/04 07:28:10;;;;;;;3.97;1.17;;;4.30;90.90;;;;;;4788629;29;20055;-74
2022/03/04 07:30:38;;;;;;;2.50;1.30;;;4.30;90.90;;;;;;4799798;29;20419;-74
2022/03/04 07:33:06;;;;;;;2.08;0.95;;;4.30;90.80;;;;;;4802697;29;20043;-74
2022/03/04 07:35:34;;;;;;;6.43;1.30;;;4.30;90.80;;;;;;4778161;30;20047;-74
2022/03/04 07:38:02;;;;;;;3.50;1.23;;;4.30;90.70;;;;;;4791225;29;20070;-74
2022/03/04 07:40:30;;;;;;;2.00;1.30;;;4.30;90.70;;;;;;4801254;29;20078;-74
2022/03/04 07:42:58;;;;;;;3.28;1.25;;;4.40;90.70;;;;;;4801984;29;20061;-75
2022/03/04 07:45:26;;;;;;;1.20;1.10;;;4.40;90.60;;;;;;4800616;29;20490;-75
2022/03/04 07:47:54;;;;;;;2.05;1.25;;;4.50;90.60;;;;;;4802576;29;20513;-75
2022/03/04 07:50:22;;;;;;;3.58;1.33;;;4.50;90.50;;;;;;4794563;29;20054;-76
2022/03/04 07:52:49;;;;;;;7.45;1.30;;;4.50;90.40;;;;;;4791876;29;20063;-74
2022/03/04 07:55:18;;;;;;;3.30;1.10;;;4.50;90.30;;;;;;4794249;29;20047;-75
2022/03/04 07:57:46;;;;;;;2.75;1.20;;;4.60;90.30;;;;;;4804542;29;20394;-75
2022/03/04 08:00:15;;;;;;;5.18;1.00;;;4.60;90.20;;;;;;4798866;29;20066;-74
2022/03/04 08:02:43;;;;;;;0.95;0.80;;;4.70;90.20;;;;;;4804214;29;20055;-75
2022/03/04 08:05:12;;;;;;;2.95;0.90;;;4.70;90.10;;;;;;4813606;29;20048;-75
2022/03/04 08:07:40;;;;;;;1.58;0.80;;;4.80;90.00;;;;;;4786513;30;20051;-75
2022/03/04 08:10:09;;;;;;;2.13;1.05;;;4.70;89.90;;;;;;4793373;29;20050;-74
2022/03/04 08:12:39;;;;;;;1.60;1.15;;;4.80;89.80;;;;;;4803376;29;20505;-74
2022/03/04 08:15:09;;;;;;;1.45;1.30;;;4.80;89.80;;;;;;4800508;29;20047;-75
2022/03/04 08:17:40;;;;;;;2.58;1.20;;;4.80;89.80;;;;;;4801435;29;20054;-75
2022/03/04 08:20:09;;;;;;;4.22;0.93;;;4.80;89.70;;;;;;4802246;29;20062;-76
2022/03/04 08:22:38;;;;;;;1.00;0.88;;;4.80;89.60;;;;;;4803990;29;20442;-75
2022/03/04 08:25:06;;;;;;;1.40;0.95;;;4.80;89.50;;;;;;4815692;29;20054;-77
2022/03/04 08:27:39;;;;;;;1.27;1.17;;;4.80;89.40;;;;;;4786343;30;20410;-73
2022/03/04 08:30:09;;;;;;;1.63;1.00;;;4.90;89.50;;;;;;4803717;29;20425;-75
2022/03/04 08:32:38;;;;;;;2.83;1.25;;;4.90;89.40;;;;;;4799378;29;20042;-76
2022/03/04 08:35:06;;;;;;;2.00;1.15;;;5.00;89.30;;;;;;4807311;29;20060;-75
2022/03/04 08:37:34;;;;;;;2.10;1.27;;;5.00;89.20;;;;;;4797212;29;20540;-75
2022/03/04 08:40:04;;;;;;;3.60;1.25;;;5.00;89.20;;;;;;4802458;29;20058;-75
2022/03/04 08:42:32;;;;;;;3.05;1.42;;;5.10;89.20;;;;;;4803934;29;20058;-75
2022/03/04 08:45:00;;;;;;;1.70;1.40;;;5.10;89.20;;;;;;4804120;29;20078;-75
2022/03/04 08:47:28;;;;;;;1.90;1.30;;;5.10;89.20;;;;;;4803906;29;20051;-74
2022/03/04 08:49:56;;;;;;;2.28;1.70;;;5.20;89.10;;;;;;4806191;29;20070;-75
2022/03/04 08:52:24;;;;;;;2.25;1.50;;;5.20;89.00;;;;;;4807246;29;20516;-75
2022/03/04 08:54:51;;;;;;;3.28;1.80;;;5.20;89.00;;;;;;4806790;29;20055;-75
2022/03/04 08:57:19;;;;;;;4.68;1.95;;;5.30;89.00;;;;;;4805171;29;20047;-76
2022/03/04 08:59:47;;;;;;;2.72;1.75;;;5.30;88.90;;;;;;4807757;29;20043;-75
2022/03/04 09:02:14;;;;;;;1.58;1.33;;;5.30;88.90;;;;;;4791777;29;20509;-75
2022/03/04 09:04:42;;;;;;;2.10;1.30;;;5.30;88.80;;;;;;4806471;29;20406;-75
2022/03/04 09:07:10;;;;;;;2.55;1.65;;;5.30;88.60;;;;;;4806246;29;20058;-75
2022/03/04 09:09:38;;;;;;;3.55;1.85;;;5.30;88.50;;;;;;4806115;29;20055;-76
2022/03/04 09:12:07;;;;;;;2.35;1.30;;;5.40;88.50;;;;;;4805942;29;20054;-75
2022/03/04 09:14:34;;;;;;;1.80;1.48;;;5.50;88.50;;;;;;4807301;29;20055;-75
2022/03/04 09:17:02;;;;;;;2.95;1.48;;;5.60;88.60;;;;;;4806773;29;20057;-76
2022/03/04 09:19:30;;;;;;;2.25;1.40;;;5.60;88.60;;;;;;4820754;29;20054;-75
2022/03/04 09:22:18;;;;;;;4.80;1.80;;;5.70;88.50;;;;;;4805517;29;20058;-76
2022/03/04 09:24:45;;;;;;;3.70;1.70;;;5.70;88.50;;;;;;4807261;29;20039;-75
2022/03/04 09:27:13;;;;;;;2.70;1.90;;;5.80;88.40;;;;;;4805948;29;20061;-76
2022/03/04 09:29:41;;;;;;;2.60;1.70;;;5.80;88.10;;;;;;4804369;29;20055;-76
2022/03/04 09:32:08;;;;;;;2.30;1.70;;;5.80;88.00;;;;;;4806781;29;20051;-75
2022/03/04 09:34:36;;;;;;;3.70;1.90;;;5.90;88.00;;;;;;4805943;29;20053;-76
2022/03/04 09:37:04;;;;;;;3.33;1.88;;;5.90;88.00;;;;;;4805945;29;20081;-76
2022/03/04 09:39:32;;;;;;;2.15;1.42;;;6.00;88.00;;;;;;4820267;29;20406;-76
2022/03/04 09:42:00;;;;;;;2.80;1.70;;;6.10;87.90;;;;;;4805674;29;20408;-76
2022/03/04 09:44:28;;;;;;;7.85;2.90;;;6.20;87.80;;;;;;4806952;29;20386;-76
2022/03/04 09:46:58;;;;;;;3.38;1.67;;;6.20;87.80;;;;;;4806633;29;20051;-76
2022/03/04 09:49:31;;;;;;;2.97;1.67;;;6.30;87.70;;;;;;4806790;29;20061;-76
2022/03/04 09:51:58;;;;;;;2.55;1.95;;;6.30;87.40;;;;;;4806540;29;20054;-76
2022/03/04 09:54:28;;;;;;;3.25;2.10;;;6.30;87.10;;;;;;4805458;29;20055;-76
2022/03/04 09:56:57;;;;;;;4.85;2.35;;;6.30;87.00;;;;;;4823479;29;20043;-76
2022/03/04 09:59:26;;;;;;;3.20;1.73;;;6.30;86.90;;;;;;4806387;29;20075;-77
2022/03/04 10:01:57;;;;;;;2.30;1.55;;;6.30;87.00;;;;;;4803825;29;20422;-74
2022/03/04 10:04:26;;;;;;;6.50;2.00;;;6.30;87.00;;;;;;4806251;29;20501;-76
2022/03/04 10:06:56;;;;;;;6.55;2.50;;;6.40;87.10;;;;;;4805257;29;20065;-76
2022/03/04 10:09:48;;;;;;;3.45;1.95;;;6.40;87.10;;;;;;4793492;29;20063;-76
2022/03/04 10:12:20;;;;;;;3.60;2.35;;;6.50;86.90;;;;;;4787495;29;20066;-77
2022/03/04 10:14:59;;;;;;;6.40;2.72;;;6.50;87.00;;;;;;4788632;29;20043;-76
2022/03/04 10:17:35;;;;;;;5.90;3.20;;;6.50;86.80;;;;;;4787880;30;20047;-76
2022/03/04 10:20:14;;;;;;;5.40;3.58;;;6.40;86.90;;;;;;4788205;30;20060;-76
2022/03/04 10:22:45;;;;;;;9.98;3.33;;;6.50;87.00;;;;;;4788134;30;20054;-76
2022/03/04 10:25:24;;;;;;;5.35;3.20;;;6.50;87.00;;;;;;4802716;29;20069;-75
2022/03/04 10:27:52;;;;;;;5.70;3.35;;;6.50;86.90;;;;;;4804549;29;20047;-75
2022/03/04 10:30:31;;;;;;;15.15;3.65;;;6.50;86.90;;;;;;4805995;29;20051;-76
2022/03/04 10:33:07;;;;;;;7.93;3.85;;;6.50;87.00;;;;;;4804883;29;20418;-76
2022/03/04 10:35:39;;;;;;;5.35;3.90;;;6.60;87.00;;;;;;4799439;29;20047;-76
2022/03/04 10:38:21;;;;;;;6.28;3.60;;;6.60;87.10;;;;;;4797710;29;20054;-77
2022/03/04 10:40:49;;;;;;;6.72;3.90;;;6.60;87.00;;;;;;4795278;29;20047;-79
2022/03/04 10:43:25;;;;;;;7.35;3.95;;;6.60;87.00;;;;;;4798750;29;20046;-77
2022/03/04 10:46:00;;;;;;;6.07;3.80;;;6.60;86.80;;;;;;4792797;29;20043;-73
2022/03/04 10:48:28;;;;;;;6.80;3.70;;;6.60;86.90;;;;;;4805275;29;20049;-77
2022/03/04 10:51:03;;;;;;;6.10;2.85;;;6.70;86.90;;;;;;4805851;29;20046;-76
2022/03/04 10:53:34;;;;;;;5.78;2.75;;;6.70;86.90;;;;;;4795740;29;20059;-79
2022/03/04 10:56:05;;;;;;;5.05;2.83;;;6.70;86.50;;;;;;4789578;29;20058;-76
2022/03/04 10:58:38;;;;;;;5.00;2.47;;;6.70;86.20;;;;;;4790687;29;20062;-75
2022/03/04 11:01:12;;;;;;;7.00;3.00;;;6.80;86.00;;;;;;4828803;29;20050;-76
2022/03/04 11:03:41;;;;;;;7.07;2.33;;;6.80;86.00;;;;;;4804988;29;20531;-76
2022/03/04 11:06:13;;;;;;;9.73;2.95;;;6.80;86.10;;;;;;4791578;29;20062;-77
2022/03/04 11:08:44;;;;;;;11.25;3.20;;;6.80;86.00;;;;;;4804272;29;20054;-78
2022/03/04 11:11:12;;;;;;;5.28;2.42;;;6.90;85.90;;;;;;4804876;29;20062;-77
2022/03/04 11:13:41;;;;;;;7.38;2.80;;;7.00;85.80;;;;;;4805140;29;20051;-77
2022/03/04 11:16:09;;;;;;;11.20;2.58;;;7.00;85.50;;;;;;4804950;29;20216;-77
2022/03/04 11:18:38;;;;;;;6.38;2.20;;;7.00;85.40;;;;;;4803704;29;20057;-77
2022/03/04 11:21:05;;;;;;;11.35;2.40;;;7.10;85.20;;;;;;4804528;29;20058;-77
2022/03/04 11:23:35;;;;;;;8.52;2.30;;;7.10;85.00;;;;;;4802383;29;20051;-77
2022/03/04 11:26:05;;;;;;;10.15;2.72;;;7.10;84.80;;;;;;4804783;29;20546;-76
2022/03/04 11:28:43;;;;;;;5.28;1.63;;;7.20;84.90;;;;;;4805211;29;20059;-77
2022/03/04 11:31:13;;;;;;;10.07;2.30;;;7.20;84.60;;;;;;4818262;29;20047;-78
2022/03/04 11:33:46;;;;;;;7.85;1.85;;;7.30;84.10;;;;;;4803914;29;20047;-77
2022/03/04 11:36:15;;;;;;;8.95;1.55;;;7.40;84.00;;;;;;4803571;29;20062;-77
2022/03/04 11:38:48;;;;;;;8.63;1.58;;;7.60;83.60;;;;;;4804666;29;20065;-77
2022/03/04 11:41:32;;;;;;;8.73;1.83;;;7.70;83.50;;;;;;4804500;29;20047;-78
2022/03/04 11:44:21;;;;;;;8.57;1.58;;;7.80;82.90;;;;;;4818316;29;20054;-75
2022/03/04 11:47:02;;;;;;;4.68;1.38;;;7.90;82.40;;;;;;4804786;29;20050;-76
2022/03/04 11:49:31;;;;;;;4.43;1.20;;;8.00;81.80;;;;;;4804669;29;20054;-76
2022/03/04 11:52:25;;;;;;;9.52;1.65;;;8.00;80.30;;;;;;4818481;29;20059;-76
2022/03/04 11:54:56;;;;;;;12.23;2.20;;;8.00;80.50;;;;;;4817952;29;20051;-76
2022/03/04 11:57:36;;;;;;;12.90;1.83;;;8.00;80.50;;;;;;4818620;29;20513;-77
2022/03/04 12:00:12;;;;;;;5.75;1.25;;;8.10;80.50;;;;;;4804620;29;20051;-76
2022/03/04 12:02:46;;;;;;;5.75;1.75;;;8.20;79.90;;;;;;4804826;29;20069;-75
2022/03/04 12:05:14;;;;;;;7.28;1.33;;;8.20;79.40;;;;;;4819074;29;20058;-76
2022/03/04 12:07:44;;;;;;;11.02;1.75;;;8.20;78.90;;;;;;4803887;29;20070;-75
2022/03/04 12:10:21;;;;;;;14.05;1.73;;;8.20;78.50;;;;;;4805057;29;20047;-75
2022/03/04 12:12:59;;;;;;;10.02;1.27;;;8.30;78.60;;;;;;4802650;29;20066;-75
2022/03/04 12:15:38;;;;;;;10.15;1.42;;;8.30;78.10;;;;;;4804937;29;20054;-76
2022/03/04 12:18:07;;;;;;;9.35;1.50;;;8.40;77.50;;;;;;4803793;29;20061;-76
2022/03/04 12:20:41;;;;;;;10.07;1.52;;;8.40;76.80;;;;;;4805164;29;20391;-75
2022/03/04 12:23:15;;;;;;;7.43;1.13;;;8.50;76.30;;;;;;4808586;29;20051;-76
2022/03/04 12:25:52;;;;;;;15.25;1.60;;;8.50;76.50;;;;;;4808613;29;20059;-76
2022/03/04 12:28:24;;;;;;;16.52;1.58;;;8.50;76.30;;;;;;4808483;29;20050;-75
2022/03/04 12:31:16;;;;;;;;;;;8.60;75.80;;;;;;4808378;29;20047;-75
2022/03/04 12:33:47;;;;;;;9.10;1.58;;;8.60;75.60;;;;;;4799790;29;19932;-75
2022/03/04 12:36:17;;;;;;;6.93;1.55;;;8.70;75.30;;;;;;4808583;29;20054;-75
2022/03/04 12:38:59;;;;;;;11.98;1.67;;;8.80;75.50;;;;;;4808277;29;20047;-75
2022/03/04 12:41:29;;;;;;;8.82;1.88;;;8.80;75.80;;;;;;4808419;29;20051;-75
2022/03/04 12:44:03;;;;;;;11.73;2.28;;;8.80;76.10;;;;;;4808011;29;20494;-75
2022/03/04 12:46:41;;;;;;;10.48;2.28;;;8.70;76.40;;;;;;4807089;29;20438;-75
2022/03/04 12:49:10;;;;;;;11.45;2.08;;;8.80;75.60;;;;;;4806620;29;20522;-75
2022/03/04 12:51:40;;;;;;;11.52;2.60;;;8.80;74.70;;;;;;4807805;29;20070;-75
2022/03/04 12:54:15;;;;;;;10.57;1.90;;;8.80;75.20;;;;;;4807371;29;20058;-75
2022/03/04 12:56:52;;;;;;;11.02;2.45;;;8.80;75.30;;;;;;4808010;29;20074;-75
2022/03/04 12:59:20;;;;;;;16.52;2.15;;;8.80;75.60;;;;;;4808038;29;20140;-75
2022/03/04 13:01:50;;;;;;;9.70;1.63;;;8.80;75.70;;;;;;4808035;29;20054;-75
2022/03/04 13:04:20;;;;;;;10.40;2.15;;;8.80;75.60;;;;;;4807765;29;20057;-75
2022/03/04 13:06:59;;;;;;;8.32;1.83;;;8.80;75.70;;;;;;4821357;29;20597;-76
2022/03/04 13:09:28;;;;;;;13.35;1.85;;;9.00;75.00;;;;;;4807837;29;20073;-76